sensor_id;sensor_type;location;lat;lon;timestamp;temperature;humidity
19232;DHT22;9750;48.730;10.294;2023-09-18T00:01:43;20.40;95.90
19232;DHT22;9750;48.730;10.294;2023-09-18T00:04:10;20.40;95.90
19232;DHT22;9750;48.730;10.294;2023-09-18T00:06:38;20.40;96.00
19232;DHT22;9750;48.730;10.294;2023-09-18T00:09:07;20.40;96.00
19232;DHT22;9750;48.730;10.294;2023-09-18T00:11:37;20.40;96.10
19232;DHT22;9750;48.730;10.294;2023-09-18T00:14:05;20.40;96.10
19232;DHT22;9750;48.730;10.294;2023-09-18T00:16:32;20.40;96.10
19232;DHT22;9750;48.730;10.294;2023-09-18T00:18:59;20.40;96.20
19232;DHT22;9750;48.730;10.294;2023-09-18T00:21:27;20.40;96.20
19232;DHT22;9750;48.730;10.294;2023-09-18T00:23:56;20.30;96.20
19232;DHT22;9750;48.730;10.294;2023-09-18T00:26:25;20.30;96.20
19232;DHT22;9750;48.730;10.294;2023-09-18T00:28:52;20.30;96.20
19232;DHT22;9750;48.730;10.294;2023-09-18T00:31:20;20.30;96.30
19232;DHT22;9750;48.730;10.294;2023-09-18T00:33:47;20.30;96.20
19232;DHT22;9750;48.730;10.294;2023-09-18T00:36:14;20.30;96.30
19232;DHT22;9750;48.730;10.294;2023-09-18T00:38:42;20.30;96.40
19232;DHT22;9750;48.730;10.294;2023-09-18T00:41:10;20.30;96.40
19232;DHT22;9750;48.730;10.294;2023-09-18T00:43:38;20.20;96.40
19232;DHT22;9750;48.730;10.294;2023-09-18T00:46:06;20.20;96.40
19232;DHT22;9750;48.730;10.294;2023-09-18T00:48:33;20.20;96.40
19232;DHT22;9750;48.730;10.294;2023-09-18T00:51:01;20.20;96.40
19232;DHT22;9750;48.730;10.294;2023-09-18T00:53:29;20.10;96.40
19232;DHT22;9750;48.730;10.294;2023-09-18T00:55:58;20.10;96.50
19232;DHT22;9750;48.730;10.294;2023-09-18T00:58:27;20.10;96.50
19232;DHT22;9750;48.730;10.294;2023-09-18T01:00:56;20.10;96.50
19232;DHT22;9750;48.730;10.294;2023-09-18T01:03:24;20.10;96.80
19232;DHT22;9750;48.730;10.294;2023-09-18T01:05:51;20.10;96.50
19232;DHT22;9750;48.730;10.294;2023-09-18T01:08:19;20.00;96.50
19232;DHT22;9750;48.730;10.294;2023-09-18T01:10:53;20.00;96.60
19232;DHT22;9750;48.730;10.294;2023-09-18T01:13:27;20.00;96.60
19232;DHT22;9750;48.730;10.294;2023-09-18T01:16:00;20.00;96.60
19232;DHT22;9750;48.730;10.294;2023-09-18T01:18:29;19.90;96.60
19232;DHT22;9750;48.730;10.294;2023-09-18T01:20:57;19.90;96.60
19232;DHT22;9750;48.730;10.294;2023-09-18T01:23:25;19.80;96.40
19232;DHT22;9750;48.730;10.294;2023-09-18T01:25:53;19.80;96.30
19232;DHT22;9750;48.730;10.294;2023-09-18T01:28:20;19.80;96.20
19232;DHT22;9750;48.730;10.294;2023-09-18T01:30:47;19.70;96.20
19232;DHT22;9750;48.730;10.294;2023-09-18T01:33:15;19.70;96.30
19232;DHT22;9750;48.730;10.294;2023-09-18T01:35:44;19.60;96.40
19232;DHT22;9750;48.730;10.294;2023-09-18T01:38:12;19.60;96.50
19232;DHT22;9750;48.730;10.294;2023-09-18T01:40:42;19.60;96.90
19232;DHT22;9750;48.730;10.294;2023-09-18T01:43:09;19.60;97.10
19232;DHT22;9750;48.730;10.294;2023-09-18T01:45:37;19.60;97.10
19232;DHT22;9750;48.730;10.294;2023-09-18T01:48:05;19.60;97.20
19232;DHT22;9750;48.730;10.294;2023-09-18T01:50:32;19.60;97.20
19232;DHT22;9750;48.730;10.294;2023-09-18T01:53:00;19.60;97.20
19232;DHT22;9750;48.730;10.294;2023-09-18T01:55:27;19.60;97.40
19232;DHT22;9750;48.730;10.294;2023-09-18T01:57:56;19.60;97.50
19232;DHT22;9750;48.730;10.294;2023-09-18T02:00:23;19.60;97.40
19232;DHT22;9750;48.730;10.294;2023-09-18T02:02:51;19.60;97.50
19232;DHT22;9750;48.730;10.294;2023-09-18T02:05:18;19.60;97.50
19232;DHT22;9750;48.730;10.294;2023-09-18T02:07:45;19.70;97.50
19232;DHT22;9750;48.730;10.294;2023-09-18T02:10:13;19.70;97.60
19232;DHT22;9750;48.730;10.294;2023-09-18T02:12:40;19.70;97.50
19232;DHT22;9750;48.730;10.294;2023-09-18T02:15:09;19.70;97.50
19232;DHT22;9750;48.730;10.294;2023-09-18T02:17:37;19.70;97.50
19232;DHT22;9750;48.730;10.294;2023-09-18T02:20:05;19.70;97.60
19232;DHT22;9750;48.730;10.294;2023-09-18T02:22:37;19.80;97.60
19232;DHT22;9750;48.730;10.294;2023-09-18T02:25:06;19.80;97.60
19232;DHT22;9750;48.730;10.294;2023-09-18T02:27:34;19.80;97.60
19232;DHT22;9750;48.730;10.294;2023-09-18T02:30:01;19.80;97.60
19232;DHT22;9750;48.730;10.294;2023-09-18T02:32:30;19.80;97.70
19232;DHT22;9750;48.730;10.294;2023-09-18T02:34:58;19.80;97.70
19232;DHT22;9750;48.730;10.294;2023-09-18T02:37:25;19.80;97.80
19232;DHT22;9750;48.730;10.294;2023-09-18T02:39:54;19.80;97.80
19232;DHT22;9750;48.730;10.294;2023-09-18T02:42:22;19.80;98.00
19232;DHT22;9750;48.730;10.294;2023-09-18T02:44:49;19.80;98.10
19232;DHT22;9750;48.730;10.294;2023-09-18T02:47:16;19.70;97.30
19232;DHT22;9750;48.730;10.294;2023-09-18T02:49:45;19.60;96.90
19232;DHT22;9750;48.730;10.294;2023-09-18T02:52:13;19.60;97.10
19232;DHT22;9750;48.730;10.294;2023-09-18T02:54:40;19.60;97.20
19232;DHT22;9750;48.730;10.294;2023-09-18T02:57:07;19.50;97.30
19232;DHT22;9750;48.730;10.294;2023-09-18T02:59:34;19.40;96.90
19232;DHT22;9750;48.730;10.294;2023-09-18T03:02:02;19.10;97.40
19232;DHT22;9750;48.730;10.294;2023-09-18T03:04:29;19.10;97.60
19232;DHT22;9750;48.730;10.294;2023-09-18T03:06:58;19.10;97.60
19232;DHT22;9750;48.730;10.294;2023-09-18T03:09:25;19.10;97.50
19232;DHT22;9750;48.730;10.294;2023-09-18T03:11:53;19.20;98.10
19232;DHT22;9750;48.730;10.294;2023-09-18T03:14:20;19.20;98.50
19232;DHT22;9750;48.730;10.294;2023-09-18T03:16:47;19.10;97.90
19232;DHT22;9750;48.730;10.294;2023-09-18T03:19:16;19.00;98.30
19232;DHT22;9750;48.730;10.294;2023-09-18T03:21:43;19.00;98.40
19232;DHT22;9750;48.730;10.294;2023-09-18T03:24:12;19.00;98.30
19232;DHT22;9750;48.730;10.294;2023-09-18T03:26:39;19.10;98.20
19232;DHT22;9750;48.730;10.294;2023-09-18T03:29:07;18.90;98.10
19232;DHT22;9750;48.730;10.294;2023-09-18T03:31:34;18.80;99.00
19232;DHT22;9750;48.730;10.294;2023-09-18T03:34:01;18.70;99.10
19232;DHT22;9750;48.730;10.294;2023-09-18T03:36:28;18.70;99.20
19232;DHT22;9750;48.730;10.294;2023-09-18T03:38:56;18.80;98.90
19232;DHT22;9750;48.730;10.294;2023-09-18T03:41:25;18.80;98.80
19232;DHT22;9750;48.730;10.294;2023-09-18T03:43:52;18.70;98.80
19232;DHT22;9750;48.730;10.294;2023-09-18T03:46:20;18.80;98.80
19232;DHT22;9750;48.730;10.294;2023-09-18T03:48:47;18.80;98.80
19232;DHT22;9750;48.730;10.294;2023-09-18T03:51:14;18.80;98.80
19232;DHT22;9750;48.730;10.294;2023-09-18T03:53:41;18.90;98.60
19232;DHT22;9750;48.730;10.294;2023-09-18T03:56:09;18.90;98.60
19232;DHT22;9750;48.730;10.294;2023-09-18T03:58:37;18.90;98.50
19232;DHT22;9750;48.730;10.294;2023-09-18T04:01:05;18.90;98.70
19232;DHT22;9750;48.730;10.294;2023-09-18T04:03:32;18.90;98.60
19232;DHT22;9750;48.730;10.294;2023-09-18T04:05:59;18.90;98.70
19232;DHT22;9750;48.730;10.294;2023-09-18T04:08:26;18.80;99.10
19232;DHT22;9750;48.730;10.294;2023-09-18T04:10:55;18.80;99.10
19232;DHT22;9750;48.730;10.294;2023-09-18T04:13:23;18.70;99.00
19232;DHT22;9750;48.730;10.294;2023-09-18T04:15:52;18.70;98.50
19232;DHT22;9750;48.730;10.294;2023-09-18T04:18:25;18.70;98.60
19232;DHT22;9750;48.730;10.294;2023-09-18T04:20:52;18.80;98.60
19232;DHT22;9750;48.730;10.294;2023-09-18T04:23:21;18.70;98.60
19232;DHT22;9750;48.730;10.294;2023-09-18T04:25:49;18.70;98.60
19232;DHT22;9750;48.730;10.294;2023-09-18T04:28:19;18.70;98.70
19232;DHT22;9750;48.730;10.294;2023-09-18T04:30:47;18.70;98.70
19232;DHT22;9750;48.730;10.294;2023-09-18T04:33:16;18.60;99.00
19232;DHT22;9750;48.730;10.294;2023-09-18T04:35:43;18.60;98.60
19232;DHT22;9750;48.730;10.294;2023-09-18T04:38:11;18.60;98.70
19232;DHT22;9750;48.730;10.294;2023-09-18T04:40:40;18.70;98.80
19232;DHT22;9750;48.730;10.294;2023-09-18T04:43:07;18.70;98.70
19232;DHT22;9750;48.730;10.294;2023-09-18T04:45:34;18.70;98.80
19232;DHT22;9750;48.730;10.294;2023-09-18T04:48:02;18.70;98.90
19232;DHT22;9750;48.730;10.294;2023-09-18T04:50:32;18.70;99.00
19232;DHT22;9750;48.730;10.294;2023-09-18T04:53:00;18.60;99.10
19232;DHT22;9750;48.730;10.294;2023-09-18T04:55:29;18.60;98.60
19232;DHT22;9750;48.730;10.294;2023-09-18T04:57:57;18.60;98.80
19232;DHT22;9750;48.730;10.294;2023-09-18T05:00:25;18.70;98.80
19232;DHT22;9750;48.730;10.294;2023-09-18T05:02:52;18.70;98.80
19232;DHT22;9750;48.730;10.294;2023-09-18T05:05:20;18.80;98.70
19232;DHT22;9750;48.730;10.294;2023-09-18T05:07:49;18.80;98.00
19232;DHT22;9750;48.730;10.294;2023-09-18T05:10:16;18.90;98.60
19232;DHT22;9750;48.730;10.294;2023-09-18T05:12:43;18.90;98.60
19232;DHT22;9750;48.730;10.294;2023-09-18T05:15:13;18.90;98.10
19232;DHT22;9750;48.730;10.294;2023-09-18T05:17:46;18.80;98.00
19232;DHT22;9750;48.730;10.294;2023-09-18T05:20:18;18.80;98.00
19232;DHT22;9750;48.730;10.294;2023-09-18T05:26:06;18.80;98.00
19232;DHT22;9750;48.730;10.294;2023-09-18T05:28:33;18.70;98.10
19232;DHT22;9750;48.730;10.294;2023-09-18T05:31:00;18.70;98.00
19232;DHT22;9750;48.730;10.294;2023-09-18T05:33:27;18.70;98.10
19232;DHT22;9750;48.730;10.294;2023-09-18T05:35:55;18.70;98.10
19232;DHT22;9750;48.730;10.294;2023-09-18T05:38:22;18.70;98.10
19232;DHT22;9750;48.730;10.294;2023-09-18T05:40:49;18.70;98.10
19232;DHT22;9750;48.730;10.294;2023-09-18T05:43:18;18.70;98.10
19232;DHT22;9750;48.730;10.294;2023-09-18T05:45:45;18.80;98.10
19232;DHT22;9750;48.730;10.294;2023-09-18T05:48:15;18.80;98.20
19232;DHT22;9750;48.730;10.294;2023-09-18T05:50:42;18.80;98.10
19232;DHT22;9750;48.730;10.294;2023-09-18T05:53:10;18.80;98.00
19232;DHT22;9750;48.730;10.294;2023-09-18T05:55:37;18.90;98.10
19232;DHT22;9750;48.730;10.294;2023-09-18T05:58:04;18.80;98.00
19232;DHT22;9750;48.730;10.294;2023-09-18T06:00:34;18.90;97.90
19232;DHT22;9750;48.730;10.294;2023-09-18T06:03:02;18.90;97.90
19232;DHT22;9750;48.730;10.294;2023-09-18T06:05:31;18.90;97.90
19232;DHT22;9750;48.730;10.294;2023-09-18T06:07:59;18.90;97.80
19232;DHT22;9750;48.730;10.294;2023-09-18T06:10:27;19.00;97.80
19232;DHT22;9750;48.730;10.294;2023-09-18T06:12:54;19.00;97.80
19232;DHT22;9750;48.730;10.294;2023-09-18T06:15:21;19.10;97.90
19232;DHT22;9750;48.730;10.294;2023-09-18T06:17:50;19.20;97.90
19232;DHT22;9750;48.730;10.294;2023-09-18T06:20:17;19.20;97.90
19232;DHT22;9750;48.730;10.294;2023-09-18T06:22:45;19.30;98.00
19232;DHT22;9750;48.730;10.294;2023-09-18T06:25:12;19.30;98.00
19232;DHT22;9750;48.730;10.294;2023-09-18T06:27:41;19.30;98.10
19232;DHT22;9750;48.730;10.294;2023-09-18T06:30:09;19.40;98.10
19232;DHT22;9750;48.730;10.294;2023-09-18T06:32:37;19.40;98.10
19232;DHT22;9750;48.730;10.294;2023-09-18T06:35:06;19.50;98.10
19232;DHT22;9750;48.730;10.294;2023-09-18T06:37:34;19.50;98.10
19232;DHT22;9750;48.730;10.294;2023-09-18T06:40:01;19.50;98.10
19232;DHT22;9750;48.730;10.294;2023-09-18T06:42:31;19.60;98.40
19232;DHT22;9750;48.730;10.294;2023-09-18T06:44:58;19.60;98.00
19232;DHT22;9750;48.730;10.294;2023-09-18T06:47:27;19.70;97.90
19232;DHT22;9750;48.730;10.294;2023-09-18T06:49:54;19.70;97.90
19232;DHT22;9750;48.730;10.294;2023-09-18T06:52:23;19.80;98.20
19232;DHT22;9750;48.730;10.294;2023-09-18T06:54:51;19.80;97.70
19232;DHT22;9750;48.730;10.294;2023-09-18T06:57:18;19.90;97.30
19232;DHT22;9750;48.730;10.294;2023-09-18T06:59:47;19.90;97.30
19232;DHT22;9750;48.730;10.294;2023-09-18T07:02:14;19.90;98.00
19232;DHT22;9750;48.730;10.294;2023-09-18T07:04:42;19.90;98.40
19232;DHT22;9750;48.730;10.294;2023-09-18T07:07:11;19.90;98.50
19232;DHT22;9750;48.730;10.294;2023-09-18T07:09:41;19.90;98.50
19232;DHT22;9750;48.730;10.294;2023-09-18T07:15:30;20.10;98.60
19232;DHT22;9750;48.730;10.294;2023-09-18T07:17:57;20.20;98.60
19232;DHT22;9750;48.730;10.294;2023-09-18T07:20:25;20.30;98.60
19232;DHT22;9750;48.730;10.294;2023-09-18T07:22:52;20.50;97.90
19232;DHT22;9750;48.730;10.294;2023-09-18T07:25:21;20.60;95.50
19232;DHT22;9750;48.730;10.294;2023-09-18T07:27:48;20.70;95.90
19232;DHT22;9750;48.730;10.294;2023-09-18T07:30:15;20.80;95.20
19232;DHT22;9750;48.730;10.294;2023-09-18T07:32:59;20.80;94.90
19232;DHT22;9750;48.730;10.294;2023-09-18T07:35:30;20.90;94.10
19232;DHT22;9750;48.730;10.294;2023-09-18T07:37:58;21.00;94.10
19232;DHT22;9750;48.730;10.294;2023-09-18T07:40:27;21.00;93.10
19232;DHT22;9750;48.730;10.294;2023-09-18T07:42:54;21.00;93.50
19232;DHT22;9750;48.730;10.294;2023-09-18T07:45:23;21.10;93.50
19232;DHT22;9750;48.730;10.294;2023-09-18T07:47:50;21.20;93.40
19232;DHT22;9750;48.730;10.294;2023-09-18T07:50:17;21.20;93.30
19232;DHT22;9750;48.730;10.294;2023-09-18T07:56:08;21.40;93.60
19232;DHT22;9750;48.730;10.294;2023-09-18T07:58:36;21.50;93.00
19232;DHT22;9750;48.730;10.294;2023-09-18T08:01:04;21.60;93.00
19232;DHT22;9750;48.730;10.294;2023-09-18T08:03:32;21.70;92.70
19232;DHT22;9750;48.730;10.294;2023-09-18T08:05:59;21.70;92.80
19232;DHT22;9750;48.730;10.294;2023-09-18T08:08:27;21.70;92.90
19232;DHT22;9750;48.730;10.294;2023-09-18T08:10:56;21.80;92.60
19232;DHT22;9750;48.730;10.294;2023-09-18T08:13:25;21.80;92.50
19232;DHT22;9750;48.730;10.294;2023-09-18T08:15:52;21.90;93.10
19232;DHT22;9750;48.730;10.294;2023-09-18T08:18:20;22.00;92.80
19232;DHT22;9750;48.730;10.294;2023-09-18T08:20:47;22.00;92.70
19232;DHT22;9750;48.730;10.294;2023-09-18T08:23:14;22.00;92.70
19232;DHT22;9750;48.730;10.294;2023-09-18T08:25:42;22.00;92.60
19232;DHT22;9750;48.730;10.294;2023-09-18T08:28:09;22.10;92.40
19232;DHT22;9750;48.730;10.294;2023-09-18T08:30:38;22.10;91.90
19232;DHT22;9750;48.730;10.294;2023-09-18T08:33:06;22.10;92.10
19232;DHT22;9750;48.730;10.294;2023-09-18T08:35:33;22.10;92.30
19232;DHT22;9750;48.730;10.294;2023-09-18T08:38:00;22.20;91.90
19232;DHT22;9750;48.730;10.294;2023-09-18T08:40:29;22.20;92.30
19232;DHT22;9750;48.730;10.294;2023-09-18T08:42:58;22.20;91.70
19232;DHT22;9750;48.730;10.294;2023-09-18T08:45:36;22.20;92.00
19232;DHT22;9750;48.730;10.294;2023-09-18T08:48:06;22.30;92.40
19232;DHT22;9750;48.730;10.294;2023-09-18T08:50:34;22.30;92.60
19232;DHT22;9750;48.730;10.294;2023-09-18T08:53:03;22.30;93.10
19232;DHT22;9750;48.730;10.294;2023-09-18T08:55:31;22.40;93.20
19232;DHT22;9750;48.730;10.294;2023-09-18T08:58:00;22.40;93.50
19232;DHT22;9750;48.730;10.294;2023-09-18T09:00:27;22.50;93.60
19232;DHT22;9750;48.730;10.294;2023-09-18T09:02:55;22.50;93.70
19232;DHT22;9750;48.730;10.294;2023-09-18T09:05:24;22.50;93.90
19232;DHT22;9750;48.730;10.294;2023-09-18T09:07:51;22.50;93.80
19232;DHT22;9750;48.730;10.294;2023-09-18T09:10:18;22.60;93.70
19232;DHT22;9750;48.730;10.294;2023-09-18T09:12:51;22.60;93.60
19232;DHT22;9750;48.730;10.294;2023-09-18T09:15:21;22.60;93.60
19232;DHT22;9750;48.730;10.294;2023-09-18T09:17:49;22.60;93.60
19232;DHT22;9750;48.730;10.294;2023-09-18T09:20:17;22.50;93.50
19232;DHT22;9750;48.730;10.294;2023-09-18T09:22:47;22.50;93.70
19232;DHT22;9750;48.730;10.294;2023-09-18T09:25:23;22.50;94.00
19232;DHT22;9750;48.730;10.294;2023-09-18T09:27:52;22.50;93.50
19232;DHT22;9750;48.730;10.294;2023-09-18T09:30:23;22.60;93.40
19232;DHT22;9750;48.730;10.294;2023-09-18T09:33:21;22.60;93.30
19232;DHT22;9750;48.730;10.294;2023-09-18T09:35:51;22.60;93.20
19232;DHT22;9750;48.730;10.294;2023-09-18T09:38:20;22.60;93.30
19232;DHT22;9750;48.730;10.294;2023-09-18T09:40:47;22.60;93.40
19232;DHT22;9750;48.730;10.294;2023-09-18T09:43:15;22.60;93.10
19232;DHT22;9750;48.730;10.294;2023-09-18T09:45:46;22.60;92.50
19232;DHT22;9750;48.730;10.294;2023-09-18T09:48:13;22.60;92.90
19232;DHT22;9750;48.730;10.294;2023-09-18T09:50:44;22.60;93.00
19232;DHT22;9750;48.730;10.294;2023-09-18T09:53:12;22.60;92.60
19232;DHT22;9750;48.730;10.294;2023-09-18T09:55:41;22.60;92.30
19232;DHT22;9750;48.730;10.294;2023-09-18T09:58:10;22.60;92.90
19232;DHT22;9750;48.730;10.294;2023-09-18T10:00:43;22.50;93.10
19232;DHT22;9750;48.730;10.294;2023-09-18T10:03:12;22.60;92.50
19232;DHT22;9750;48.730;10.294;2023-09-18T10:05:41;22.50;92.50
19232;DHT22;9750;48.730;10.294;2023-09-18T10:08:11;22.50;92.30
19232;DHT22;9750;48.730;10.294;2023-09-18T10:10:43;22.50;92.10
19232;DHT22;9750;48.730;10.294;2023-09-18T10:13:16;22.40;91.90
19232;DHT22;9750;48.730;10.294;2023-09-18T10:15:44;22.40;91.90
19232;DHT22;9750;48.730;10.294;2023-09-18T10:18:27;22.40;92.10
19232;DHT22;9750;48.730;10.294;2023-09-18T10:21:01;22.40;92.30
19232;DHT22;9750;48.730;10.294;2023-09-18T10:23:38;22.40;92.20
19232;DHT22;9750;48.730;10.294;2023-09-18T10:26:13;22.40;92.30
19232;DHT22;9750;48.730;10.294;2023-09-18T10:28:43;22.50;92.60
19232;DHT22;9750;48.730;10.294;2023-09-18T10:31:12;22.40;92.00
19232;DHT22;9750;48.730;10.294;2023-09-18T10:33:41;22.30;91.30
19232;DHT22;9750;48.730;10.294;2023-09-18T10:36:10;22.20;91.50
19232;DHT22;9750;48.730;10.294;2023-09-18T10:38:39;22.10;92.10
19232;DHT22;9750;48.730;10.294;2023-09-18T10:41:07;22.00;91.70
19232;DHT22;9750;48.730;10.294;2023-09-18T10:43:38;22.00;92.50
19232;DHT22;9750;48.730;10.294;2023-09-18T10:46:18;21.90;92.30
19232;DHT22;9750;48.730;10.294;2023-09-18T10:52:13;21.80;92.70
19232;DHT22;9750;48.730;10.294;2023-09-18T10:54:54;21.70;92.50
19232;DHT22;9750;48.730;10.294;2023-09-18T10:57:28;21.60;92.70
19232;DHT22;9750;48.730;10.294;2023-09-18T10:59:58;21.50;93.20
19232;DHT22;9750;48.730;10.294;2023-09-18T11:02:28;21.50;93.30
19232;DHT22;9750;48.730;10.294;2023-09-18T11:05:02;21.30;93.30
19232;DHT22;9750;48.730;10.294;2023-09-18T11:07:31;21.30;93.30
19232;DHT22;9750;48.730;10.294;2023-09-18T11:10:31;21.20;93.80
19232;DHT22;9750;48.730;10.294;2023-09-18T11:13:08;21.10;93.90
19232;DHT22;9750;48.730;10.294;2023-09-18T11:15:38;21.00;94.00
19232;DHT22;9750;48.730;10.294;2023-09-18T11:18:05;21.00;94.20
19232;DHT22;9750;48.730;10.294;2023-09-18T11:20:34;21.00;93.90
19232;DHT22;9750;48.730;10.294;2023-09-18T11:23:15;20.90;94.30
19232;DHT22;9750;48.730;10.294;2023-09-18T11:25:43;20.90;94.80
19232;DHT22;9750;48.730;10.294;2023-09-18T11:28:13;20.80;94.70
19232;DHT22;9750;48.730;10.294;2023-09-18T11:30:50;20.80;94.70
19232;DHT22;9750;48.730;10.294;2023-09-18T11:33:32;20.70;95.00
19232;DHT22;9750;48.730;10.294;2023-09-18T11:36:03;20.60;94.80
19232;DHT22;9750;48.730;10.294;2023-09-18T11:38:33;20.60;94.90
19232;DHT22;9750;48.730;10.294;2023-09-18T11:41:20;20.40;94.90
19232;DHT22;9750;48.730;10.294;2023-09-18T11:43:47;20.40;94.90
19232;DHT22;9750;48.730;10.294;2023-09-18T11:46:21;20.40;95.00
19232;DHT22;9750;48.730;10.294;2023-09-18T11:48:51;20.30;95.30
19232;DHT22;9750;48.730;10.294;2023-09-18T11:51:23;20.20;95.40
19232;DHT22;9750;48.730;10.294;2023-09-18T11:53:53;20.20;95.40
19232;DHT22;9750;48.730;10.294;2023-09-18T11:56:24;20.30;95.90
19232;DHT22;9750;48.730;10.294;2023-09-18T11:58:52;20.30;95.80
19232;DHT22;9750;48.730;10.294;2023-09-18T12:01:22;20.30;96.10
19232;DHT22;9750;48.730;10.294;2023-09-18T12:03:53;20.10;95.80
19232;DHT22;9750;48.730;10.294;2023-09-18T12:06:21;20.10;95.90
19232;DHT22;9750;48.730;10.294;2023-09-18T12:08:51;20.10;96.10
19232;DHT22;9750;48.730;10.294;2023-09-18T12:11:18;20.00;96.20
19232;DHT22;9750;48.730;10.294;2023-09-18T12:13:46;20.00;96.10
19232;DHT22;9750;48.730;10.294;2023-09-18T12:16:14;20.00;96.30
19232;DHT22;9750;48.730;10.294;2023-09-18T12:18:47;19.90;96.30
19232;DHT22;9750;48.730;10.294;2023-09-18T12:21:15;19.90;96.40
19232;DHT22;9750;48.730;10.294;2023-09-18T12:23:44;19.90;96.60
19232;DHT22;9750;48.730;10.294;2023-09-18T12:26:13;19.80;96.70
19232;DHT22;9750;48.730;10.294;2023-09-18T12:28:41;19.80;96.80
19232;DHT22;9750;48.730;10.294;2023-09-18T12:31:10;19.80;97.00
19232;DHT22;9750;48.730;10.294;2023-09-18T12:33:39;19.70;97.00
19232;DHT22;9750;48.730;10.294;2023-09-18T12:36:08;19.70;97.10
19232;DHT22;9750;48.730;10.294;2023-09-18T12:38:36;19.70;97.20
19232;DHT22;9750;48.730;10.294;2023-09-18T12:41:04;19.60;97.30
19232;DHT22;9750;48.730;10.294;2023-09-18T12:43:37;19.60;97.50
19232;DHT22;9750;48.730;10.294;2023-09-18T12:46:05;19.60;97.50
19232;DHT22;9750;48.730;10.294;2023-09-18T12:48:37;19.50;97.60
19232;DHT22;9750;48.730;10.294;2023-09-18T12:51:12;19.50;97.80
19232;DHT22;9750;48.730;10.294;2023-09-18T12:53:40;19.50;97.70
19232;DHT22;9750;48.730;10.294;2023-09-18T12:56:09;19.50;97.70
19232;DHT22;9750;48.730;10.294;2023-09-18T12:58:38;19.50;97.80
19232;DHT22;9750;48.730;10.294;2023-09-18T13:01:07;19.50;98.20
19232;DHT22;9750;48.730;10.294;2023-09-18T13:03:42;19.50;98.00
19232;DHT22;9750;48.730;10.294;2023-09-18T13:06:15;19.50;97.90
19232;DHT22;9750;48.730;10.294;2023-09-18T13:08:43;19.50;98.00
19232;DHT22;9750;48.730;10.294;2023-09-18T13:11:11;19.50;98.10
19232;DHT22;9750;48.730;10.294;2023-09-18T13:13:40;19.40;98.10
19232;DHT22;9750;48.730;10.294;2023-09-18T13:16:08;19.40;98.00
19232;DHT22;9750;48.730;10.294;2023-09-18T13:18:36;19.30;98.20
19232;DHT22;9750;48.730;10.294;2023-09-18T13:21:15;19.30;98.30
19232;DHT22;9750;48.730;10.294;2023-09-18T13:23:42;19.30;98.30
19232;DHT22;9750;48.730;10.294;2023-09-18T13:26:10;19.30;98.30
19232;DHT22;9750;48.730;10.294;2023-09-18T13:28:37;19.40;98.30
19232;DHT22;9750;48.730;10.294;2023-09-18T13:31:06;19.40;98.10
19232;DHT22;9750;48.730;10.294;2023-09-18T13:33:38;19.40;98.20
19232;DHT22;9750;48.730;10.294;2023-09-18T13:36:06;19.40;98.50
19232;DHT22;9750;48.730;10.294;2023-09-18T13:38:35;19.20;98.60
19232;DHT22;9750;48.730;10.294;2023-09-18T13:44:24;19.40;98.60
19232;DHT22;9750;48.730;10.294;2023-09-18T13:46:51;19.60;98.40
19232;DHT22;9750;48.730;10.294;2023-09-18T13:49:18;19.70;98.20
19232;DHT22;9750;48.730;10.294;2023-09-18T13:51:45;19.70;98.10
19232;DHT22;9750;48.730;10.294;2023-09-18T13:54:14;19.70;97.90
19232;DHT22;9750;48.730;10.294;2023-09-18T13:56:42;19.70;98.00
19232;DHT22;9750;48.730;10.294;2023-09-18T13:59:09;19.70;98.10
19232;DHT22;9750;48.730;10.294;2023-09-18T14:01:37;19.80;98.10
19232;DHT22;9750;48.730;10.294;2023-09-18T14:04:04;19.80;98.20
19232;DHT22;9750;48.730;10.294;2023-09-18T14:06:33;19.80;98.20
19232;DHT22;9750;48.730;10.294;2023-09-18T14:09:00;19.80;98.00
19232;DHT22;9750;48.730;10.294;2023-09-18T14:11:32;19.80;98.10
19232;DHT22;9750;48.730;10.294;2023-09-18T14:14:03;19.80;98.20
19232;DHT22;9750;48.730;10.294;2023-09-18T14:16:30;19.70;98.10
19232;DHT22;9750;48.730;10.294;2023-09-18T14:18:59;19.70;98.20
19232;DHT22;9750;48.730;10.294;2023-09-18T14:21:27;19.70;98.20
19232;DHT22;9750;48.730;10.294;2023-09-18T14:23:55;19.60;98.30
19232;DHT22;9750;48.730;10.294;2023-09-18T14:26:22;19.60;98.20
19232;DHT22;9750;48.730;10.294;2023-09-18T14:28:51;19.60;98.10
19232;DHT22;9750;48.730;10.294;2023-09-18T14:31:18;19.60;98.10
19232;DHT22;9750;48.730;10.294;2023-09-18T14:33:46;19.60;98.40
19232;DHT22;9750;48.730;10.294;2023-09-18T14:36:13;19.60;98.20
19232;DHT22;9750;48.730;10.294;2023-09-18T14:38:40;19.70;98.30
19232;DHT22;9750;48.730;10.294;2023-09-18T14:41:07;19.80;98.60
19232;DHT22;9750;48.730;10.294;2023-09-18T14:43:35;19.80;98.30
19232;DHT22;9750;48.730;10.294;2023-09-18T14:46:04;19.90;98.20
19232;DHT22;9750;48.730;10.294;2023-09-18T14:48:31;19.90;98.20
19232;DHT22;9750;48.730;10.294;2023-09-18T14:51:00;19.90;98.30
19232;DHT22;9750;48.730;10.294;2023-09-18T14:53:28;19.80;98.30
19232;DHT22;9750;48.730;10.294;2023-09-18T14:55:55;19.90;98.40
19232;DHT22;9750;48.730;10.294;2023-09-18T14:58:24;19.90;98.20
19232;DHT22;9750;48.730;10.294;2023-09-18T15:00:51;19.90;98.10
19232;DHT22;9750;48.730;10.294;2023-09-18T15:03:20;19.90;98.40
19232;DHT22;9750;48.730;10.294;2023-09-18T15:05:50;19.90;98.20
19232;DHT22;9750;48.730;10.294;2023-09-18T15:08:18;20.00;98.00
19232;DHT22;9750;48.730;10.294;2023-09-18T15:10:46;20.00;98.10
19232;DHT22;9750;48.730;10.294;2023-09-18T15:13:13;20.10;98.00
19232;DHT22;9750;48.730;10.294;2023-09-18T15:15:43;20.10;97.60
19232;DHT22;9750;48.730;10.294;2023-09-18T15:18:14;20.10;98.00
19232;DHT22;9750;48.730;10.294;2023-09-18T15:20:43;20.10;98.10
19232;DHT22;9750;48.730;10.294;2023-09-18T15:23:21;20.10;98.10
19232;DHT22;9750;48.730;10.294;2023-09-18T15:25:52;20.20;98.10
19232;DHT22;9750;48.730;10.294;2023-09-18T15:28:21;20.30;98.00
19232;DHT22;9750;48.730;10.294;2023-09-18T15:31:13;20.40;98.10
19232;DHT22;9750;48.730;10.294;2023-09-18T15:33:45;20.40;98.00
19232;DHT22;9750;48.730;10.294;2023-09-18T15:36:21;20.40;97.70
19232;DHT22;9750;48.730;10.294;2023-09-18T15:38:51;20.50;97.50
19232;DHT22;9750;48.730;10.294;2023-09-18T15:41:20;20.50;97.50
19232;DHT22;9750;48.730;10.294;2023-09-18T15:43:47;20.50;97.50
19232;DHT22;9750;48.730;10.294;2023-09-18T15:46:15;20.40;97.50
19232;DHT22;9750;48.730;10.294;2023-09-18T15:48:43;20.40;97.60
19232;DHT22;9750;48.730;10.294;2023-09-18T15:51:11;20.40;97.50
19232;DHT22;9750;48.730;10.294;2023-09-18T15:53:40;20.40;97.40
19232;DHT22;9750;48.730;10.294;2023-09-18T15:56:07;20.30;97.60
19232;DHT22;9750;48.730;10.294;2023-09-18T15:58:34;20.20;97.90